Time;durP1;ratioP1;P1;durP2;ratioP2;P2;SDS_P1;SDS_P2;PMS_P1;PMS_P2;Temp;Humidity;BMP_temperature;BMP_pressure;BME280_temperature;BME280_humidity;BME280_pressure;Samples;Min_cycle;Max_cycle;Signal;HPM_P1;HPM_P2
2022/03/17 00:02:17;;;;;;;;;21.75;21.00;;;;;11.59;72.08;101700.22;5048313;28;10632;-70
2022/03/17 00:04:44;;;;;;;;;21.00;19.00;;;;;11.61;72.22;101690.91;5050542;28;11479;-70
2022/03/17 00:07:11;;;;;;;;;20.25;18.50;;;;;11.59;72.12;101687.53;5047664;28;10555;-71
2022/03/17 00:09:37;;;;;;;;;22.75;22.75;;;;;11.59;72.75;101694.81;5049999;28;10544;-70
2022/03/17 00:12:05;;;;;;;;;18.25;17.75;;;;;11.62;73.13;101691.75;5041648;28;11575;-71
2022/03/17 00:14:31;;;;;;;;;29.00;24.00;;;;;11.50;73.68;101688.56;5031892;28;11536;-70
2022/03/17 00:16:58;;;;;;;;;15.25;14.50;;;;;11.54;74.35;101689.91;5049966;28;10966;-71
2022/03/17 00:19:25;;;;;;;;;25.00;21.00;;;;;11.58;74.19;101687.69;5049728;28;10386;-70
2022/03/17 00:21:51;;;;;;;;;20.75;19.50;;;;;11.55;74.80;101690.75;5032071;28;11379;-70
2022/03/17 00:24:18;;;;;;;;;18.00;17.00;;;;;11.58;74.96;101690.41;5045565;28;11537;-70
2022/03/17 00:26:45;;;;;;;;;22.25;20.75;;;;;11.57;75.23;101684.13;5049968;28;10425;-70
2022/03/17 00:29:12;;;;;;;;;22.50;19.50;;;;;11.59;75.05;101683.97;5050129;28;10757;-70
2022/03/17 00:31:39;;;;;;;;;29.50;26.00;;;;;11.53;75.36;101681.97;5047403;28;10631;-70
2022/03/17 00:34:07;;;;;;;;;24.50;21.00;;;;;11.55;75.51;101696.19;5049890;28;10933;-69
2022/03/17 00:36:35;;;;;;;;;17.50;13.00;;;;;11.57;75.70;101695.00;5050680;28;11176;-71
2022/03/17 00:39:08;;;;;;;;;23.00;20.00;;;;;11.57;75.66;101700.41;5042730;28;10602;-70
2022/03/17 00:41:35;;;;;;;;;27.50;26.50;;;;;11.56;76.48;101701.44;5049356;28;10652;-70
2022/03/17 00:44:03;;;;;;;;;22.00;22.00;;;;;11.53;77.05;101709.06;5049554;28;11018;-68
2022/03/17 00:46:29;;;;;;;;;21.00;20.25;;;;;11.55;77.59;101707.88;5031626;28;10623;-71
2022/03/17 00:48:56;;;;;;;;;19.50;17.75;;;;;11.50;78.14;101704.84;5049801;28;10691;-68
2022/03/17 00:51:22;;;;;;;;;28.00;22.50;;;;;11.42;78.74;101702.16;5033749;28;10705;-70
2022/03/17 00:53:49;;;;;;;;;27.00;21.75;;;;;11.48;78.83;101714.19;5050423;28;10764;-71
2022/03/17 00:56:15;;;;;;;;;20.75;18.50;;;;;11.44;79.57;101702.00;5053692;28;10655;-69
2022/03/17 00:58:45;;;;;;;;;25.00;18.75;;;;;11.38;79.76;101690.78;5035937;28;10642;-69
2022/03/17 01:01:14;;;;;;;;;19.25;19.25;;;;;11.41;79.87;101692.34;5035037;28;10690;-69
2022/03/17 01:03:44;;;;;;;;;21.75;19.75;;;;;11.40;79.37;101704.19;5033383;28;10722;-68
2022/03/17 01:06:11;;;;;;;;;25.25;24.50;;;;;11.42;79.47;101698.63;5046067;28;10491;-69
2022/03/17 01:08:39;;;;;;;;;21.50;21.50;;;;;11.39;79.34;101697.06;5053432;28;10733;-69
2022/03/17 01:11:05;;;;;;;;;25.25;22.25;;;;;11.38;79.43;101698.94;5053035;28;10723;-69
2022/03/17 01:13:33;;;;;;;;;29.75;22.75;;;;;11.38;79.43;101685.38;5053425;28;10779;-69
2022/03/17 01:15:59;;;;;;;;;24.50;21.25;;;;;11.34;79.16;101686.75;5052859;28;10637;-69
2022/03/17 01:18:26;;;;;;;;;26.25;24.00;;;;;11.36;79.29;101690.13;5052481;28;10721;-70
2022/03/17 01:20:52;;;;;;;;;21.00;20.50;;;;;11.37;79.80;101699.09;5052830;28;10878;-69
2022/03/17 01:23:19;;;;;;;;;25.50;24.00;;;;;11.38;79.42;101700.81;5053418;28;10576;-69
2022/03/17 01:25:45;;;;;;;;;22.00;20.25;;;;;11.38;79.28;101695.38;5053005;28;10704;-69
2022/03/17 01:28:12;;;;;;;;;32.00;29.25;;;;;11.38;79.16;101682.66;5053613;28;10557;-70
2022/03/17 01:30:38;;;;;;;;;33.25;28.25;;;;;11.39;79.32;101691.66;5052299;28;11069;-69
2022/03/17 01:33:05;;;;;;;;;32.75;26.75;;;;;11.38;79.38;101692.66;5052915;28;11598;-69
2022/03/17 01:35:31;;;;;;;;;31.50;27.75;;;;;11.37;79.70;101685.56;5053231;28;10817;-69
2022/03/17 01:37:58;;;;;;;;;27.00;23.50;;;;;11.35;80.17;101702.00;5044407;28;10819;-69
2022/03/17 01:40:24;;;;;;;;;36.75;30.25;;;;;11.38;80.78;101695.38;5047535;28;10659;-70
2022/03/17 01:42:51;;;;;;;;;25.25;23.50;;;;;11.38;81.42;101698.09;5034822;28;11476;-70
2022/03/17 01:45:17;;;;;;;;;29.50;27.00;;;;;11.35;82.87;101699.28;5034766;28;10758;-69
2022/03/17 01:47:44;;;;;;;;;27.00;24.25;;;;;11.29;84.22;101705.41;5034827;28;11712;-69
2022/03/17 01:50:14;;;;;;;;;28.50;23.50;;;;;11.25;85.38;101708.63;5052956;28;11700;-70
2022/03/17 01:52:41;;;;;;;;;26.75;24.50;;;;;11.19;86.75;101693.91;5051818;28;10653;-70
2022/03/17 01:55:10;;;;;;;;;29.25;26.00;;;;;11.14;87.44;101703.56;5023416;28;11293;-70
2022/03/17 01:57:38;;;;;;;;;33.75;32.00;;;;;11.10;88.46;101703.91;5044288;28;10822;-70
2022/03/17 02:00:09;;;;;;;;;40.00;33.50;;;;;11.06;89.23;101705.25;5053468;28;10992;-70
2022/03/17 02:02:41;;;;;;;;;27.25;25.50;;;;;11.02;89.86;101701.22;5052493;28;11692;-70
2022/03/17 02:05:09;;;;;;;;;31.25;27.25;;;;;10.97;90.48;101711.72;5033482;28;10808;-70
2022/03/17 02:07:36;;;;;;;;;33.25;30.25;;;;;10.94;91.82;101712.06;5052093;28;11035;-70
2022/03/17 02:10:04;;;;;;;;;29.50;26.50;;;;;10.90;93.24;101720.69;5034854;28;11568;-69
2022/03/17 02:15:15;;;;;;;;;29.75;27.75;;;;;10.86;95.35;101727.44;5033915;28;10692;-69
2022/03/17 02:17:43;;;;;;;;;27.75;23.75;;;;;10.86;96.01;101732.88;5052263;28;10897;-69
2022/03/17 02:20:15;;;;;;;;;30.50;29.75;;;;;10.81;96.34;101740.66;5034467;28;10731;-70
2022/03/17 02:22:48;;;;;;;;;31.50;27.25;;;;;10.74;96.97;101733.22;5033994;28;11916;-70
2022/03/17 02:25:34;;;;;;;;;40.00;34.00;;;;;10.70;97.84;101737.28;5030781;28;10894;-69
2022/03/17 02:28:03;;;;;;;;;44.25;36.75;;;;;10.63;99.02;101741.66;5031739;28;11141;-70
2022/03/17 02:30:34;;;;;;;;;31.75;30.50;;;;;10.62;99.99;101742.66;5045472;28;10978;-71
2022/03/17 02:33:06;;;;;;;;;34.50;32.50;;;;;10.56;100.00;101753.31;5055180;28;10979;-70
2022/03/17 02:35:33;;;;;;;;;28.00;23.50;;;;;10.50;100.00;101760.25;5031979;28;10999;-70
2022/03/17 02:38:07;;;;;;;;;25.00;24.00;;;;;10.35;100.00;101772.72;5037014;28;11531;-71
2022/03/17 02:40:41;;;;;;;;;15.75;13.50;;;;;10.23;100.00;101777.63;5034093;28;10906;-72
2022/03/17 02:43:08;;;;;;;;;15.00;11.00;;;;;10.04;99.33;101785.94;5017388;28;10483;-70
2022/03/17 02:45:35;;;;;;;;;12.25;11.50;;;;;9.83;97.93;101789.91;5043033;28;10375;-71
2022/03/17 02:48:03;;;;;;;;;8.00;7.00;;;;;9.72;97.53;101792.91;5033421;28;10665;-69
2022/03/17 02:50:30;;;;;;;;;11.00;11.00;;;;;9.56;97.49;101792.78;5030161;28;10474;-69
2022/03/17 02:52:59;;;;;;;;;6.75;5.50;;;;;9.48;97.44;101788.19;5051476;28;10396;-70
2022/03/17 02:55:25;;;;;;;;;7.75;4.75;;;;;9.32;96.93;101804.28;5051546;28;10236;-69
2022/03/17 02:57:52;;;;;;;;;8.50;6.00;;;;;9.32;97.31;101806.13;5051431;28;10420;-69
2022/03/17 03:00:18;;;;;;;;;3.75;3.50;;;;;9.32;96.68;101814.22;5051203;28;10443;-71
2022/03/17 03:02:45;;;;;;;;;6.25;6.00;;;;;9.27;96.53;101817.41;5050105;28;10359;-71
2022/03/17 03:05:17;;;;;;;;;3.50;3.50;;;;;9.16;96.19;101841.94;5050981;28;10196;-71
2022/03/17 03:07:44;;;;;;;;;5.75;3.50;;;;;9.14;96.34;101854.75;5034608;28;10487;-71
2022/03/17 03:10:11;;;;;;;;;7.00;7.00;;;;;9.08;96.58;101852.69;5052330;28;10427;-71
2022/03/17 03:12:37;;;;;;;;;2.75;2.75;;;;;9.04;96.46;101852.16;5025489;28;10643;-71
2022/03/17 03:15:05;;;;;;;;;6.00;5.50;;;;;9.06;96.67;101873.59;5018010;28;10511;-72
2022/03/17 03:17:32;;;;;;;;;4.25;4.25;;;;;8.99;96.44;101880.63;5052194;28;11150;-72
2022/03/17 03:19:59;;;;;;;;;4.50;4.50;;;;;8.88;96.99;101889.78;5052190;28;10524;-71
2022/03/17 03:22:29;;;;;;;;;4.25;4.25;;;;;8.92;96.41;101885.78;5050910;28;10501;-71
2022/03/17 03:24:57;;;;;;;;;5.00;3.25;;;;;8.93;96.94;101893.75;5050865;28;10514;-71
2022/03/17 03:27:27;;;;;;;;;6.00;6.00;;;;;8.73;96.72;101900.28;5038011;28;10412;-70
2022/03/17 03:29:58;;;;;;;;;8.50;6.75;;;;;8.69;96.83;101900.72;5014785;28;10603;-71
2022/03/17 03:32:27;;;;;;;;;7.25;6.25;;;;;8.68;96.31;101912.53;5024858;28;10871;-71
2022/03/17 03:34:53;;;;;;;;;11.00;8.25;;;;;8.69;96.37;101922.31;5026920;28;11324;-73
2022/03/17 03:37:23;;;;;;;;;11.00;11.00;;;;;8.67;96.49;101925.16;5041315;28;10746;-70
2022/03/17 03:39:51;;;;;;;;;11.25;8.25;;;;;8.66;96.21;101936.09;5052367;28;11431;-72
2022/03/17 03:42:18;;;;;;;;;11.25;8.25;;;;;8.63;96.07;101938.09;5050733;28;10710;-71
2022/03/17 03:44:45;;;;;;;;;16.25;13.50;;;;;8.71;96.27;101950.03;5041691;28;10857;-71
2022/03/17 03:47:11;;;;;;;;;13.75;10.75;;;;;8.77;95.78;101955.66;5052500;28;10842;-71
2022/03/17 03:49:39;;;;;;;;;11.50;10.75;;;;;8.72;94.99;101960.66;5034385;28;11776;-72
2022/03/17 03:52:11;;;;;;;;;11.25;9.25;;;;;8.78;94.76;101967.31;5051923;28;10988;-71
2022/03/17 03:54:39;;;;;;;;;12.50;9.75;;;;;8.79;94.36;101982.50;5050724;28;10838;-72
2022/03/17 03:57:06;;;;;;;;;13.75;13.00;;;;;8.71;94.23;101987.81;5050533;28;10824;-72
2022/03/17 03:59:33;;;;;;;;;13.00;12.25;;;;;8.64;93.72;101990.22;5033711;28;10865;-72
2022/03/17 04:02:05;;;;;;;;;17.75;14.00;;;;;8.67;94.03;101995.34;5051129;28;10855;-72
2022/03/17 04:04:36;;;;;;;;;13.75;13.25;;;;;8.71;94.33;102007.56;5049987;28;11588;-72
2022/03/17 04:07:05;;;;;;;;;15.75;15.25;;;;;8.65;93.17;102016.22;5017022;28;11274;-71
2022/03/17 04:09:35;;;;;;;;;12.00;10.00;;;;;8.61;93.34;102029.19;5033540;28;11752;-72
2022/03/17 04:12:03;;;;;;;;;5.75;5.75;;;;;8.67;93.33;102032.28;5050881;28;10984;-72
2022/03/17 04:14:30;;;;;;;;;9.75;6.25;;;;;8.63;92.85;102040.69;5051605;28;10685;-72
2022/03/17 04:16:57;;;;;;;;;6.25;4.00;;;;;8.71;92.50;102044.50;5033713;28;11497;-73
2022/03/17 04:19:25;;;;;;;;;4.50;4.00;;;;;8.68;91.82;102044.81;5022028;28;10677;-72
2022/03/17 04:21:51;;;;;;;;;3.00;3.00;;;;;8.60;91.89;102040.97;5051411;28;11398;-72
2022/03/17 04:24:20;;;;;;;;;2.25;2.25;;;;;8.58;91.76;102063.72;5050028;28;11267;-72
2022/03/17 04:26:48;;;;;;;;;1.50;1.50;;;;;8.52;91.48;102067.00;5054011;28;10376;-72
2022/03/17 04:29:15;;;;;;;;;1.75;1.75;;;;;8.55;91.80;102067.56;5043002;28;10542;-73
2022/03/17 04:31:43;;;;;;;;;5.25;2.00;;;;;8.57;91.69;102072.81;5044097;28;11141;-73
2022/03/17 04:34:10;;;;;;;;;2.25;0.25;;;;;8.49;91.18;102078.09;5041379;28;10520;-72
2022/03/17 04:36:37;;;;;;;;;2.50;1.00;;;;;8.38;91.05;102084.47;5051265;28;10393;-73
2022/03/17 04:39:06;;;;;;;;;1.75;1.75;;;;;8.45;90.78;102084.78;5026191;28;10427;-71
2022/03/17 04:41:32;;;;;;;;;2.00;2.00;;;;;8.45;90.19;102100.97;5045920;28;10532;-72
2022/03/17 04:43:59;;;;;;;;;1.00;1.00;;;;;8.30;89.62;102093.28;5044127;28;10470;-73
2022/03/17 04:46:25;;;;;;;;;2.00;1.25;;;;;8.29;89.72;102091.56;5059619;28;10519;-73
2022/03/17 04:48:52;;;;;;;;;1.25;1.25;;;;;8.41;89.92;102105.78;5060526;28;10512;-72
2022/03/17 04:51:18;;;;;;;;;2.00;0.25;;;;;8.41;89.46;102118.41;5053184;28;10574;-74
2022/03/17 04:53:45;;;;;;;;;1.00;1.00;;;;;8.40;89.49;102135.59;5076476;28;10413;-74
2022/03/17 04:56:20;;;;;;;;;1.00;1.00;;;;;8.43;89.11;102143.44;5043082;28;10350;-74
2022/03/17 04:58:46;;;;;;;;;3.25;3.25;;;;;8.38;89.08;102143.84;5043860;28;10461;-73
2022/03/17 05:01:14;;;;;;;;;0.00;0.00;;;;;8.41;89.21;102164.28;5060843;28;10366;-74
2022/03/17 05:03:41;;;;;;;;;2.00;2.00;;;;;8.33;88.05;102160.47;5043276;28;10358;-74
2022/03/17 05:06:15;;;;;;;;;3.00;0.75;;;;;8.33;88.50;102171.25;5050887;28;11285;-73
2022/03/17 05:08:42;;;;;;;;;1.50;1.00;;;;;8.31;88.34;102170.53;5035762;28;10464;-73
2022/03/17 05:11:10;;;;;;;;;1.25;1.25;;;;;8.26;89.10;102178.19;5003573;28;10564;-73
2022/03/17 05:13:38;;;;;;;;;4.00;1.00;;;;;8.28;89.15;102192.41;5021646;28;10508;-74
2022/03/17 05:16:06;;;;;;;;;1.50;1.00;;;;;8.21;89.29;102206.59;5035546;28;10442;-73
2022/03/17 05:18:33;;;;;;;;;0.00;0.00;;;;;8.21;89.09;102210.16;5055882;28;10443;-73
2022/03/17 05:21:00;;;;;;;;;3.00;1.25;;;;;8.22;89.15;102213.69;5057404;28;10365;-73
2022/03/17 05:23:27;;;;;;;;;0.50;0.00;;;;;8.34;89.38;102226.09;5036454;28;10377;-71
2022/03/17 05:25:53;;;;;;;;;1.25;0.75;;;;;8.29;89.03;102212.97;5053033;28;10404;-73
2022/03/17 05:28:20;;;;;;;;;0.25;0.25;;;;;8.26;88.46;102224.06;5054143;28;10524;-73
2022/03/17 05:30:47;;;;;;;;;1.00;1.00;;;;;8.30;88.95;102236.28;5055064;28;10483;-73
2022/03/17 05:33:13;;;;;;;;;2.00;0.75;;;;;8.29;88.76;102236.41;5036436;28;10435;-71
2022/03/17 05:35:42;;;;;;;;;1.00;1.00;;;;;8.10;88.78;102242.63;5055591;28;10503;-72
2022/03/17 05:38:09;;;;;;;;;1.25;0.00;;;;;8.05;89.95;102258.38;5055602;28;10295;-73
2022/03/17 05:40:36;;;;;;;;;1.00;1.00;;;;;8.06;90.38;102260.06;5055461;28;10431;-70
2022/03/17 05:43:08;;;;;;;;;1.25;0.25;;;;;8.09;90.44;102278.69;5025039;28;10449;-73
2022/03/17 05:45:37;;;;;;;;;2.50;0.00;;;;;7.99;89.49;102277.81;5041791;28;10366;-73
2022/03/17 05:48:05;;;;;;;;;1.50;1.50;;;;;7.93;89.12;102292.69;5057980;28;10467;-71
2022/03/17 05:50:37;;;;;;;;;0.00;0.00;;;;;8.03;88.80;102306.19;5038812;28;10442;-72
2022/03/17 05:53:08;;;;;;;;;1.25;1.00;;;;;7.94;88.36;102310.59;5068499;28;10497;-72
2022/03/17 05:55:35;;;;;;;;;1.00;1.00;;;;;7.99;88.31;102313.72;5054274;28;10581;-73
2022/03/17 05:58:02;;;;;;;;;0.00;0.00;;;;;7.92;87.61;102334.09;5038000;28;10578;-71
2022/03/17 06:00:30;;;;;;;;;1.75;0.00;;;;;7.90;86.16;102333.38;5039322;28;10456;-72
2022/03/17 06:02:58;;;;;;;;;1.00;1.00;;;;;7.94;85.83;102334.84;5056689;28;10557;-73
2022/03/17 06:05:27;;;;;;;;;0.50;0.50;;;;;7.89;85.29;102344.31;5039532;28;11235;-72
2022/03/17 06:07:55;;;;;;;;;3.67;2.00;;;;;7.83;84.02;102352.94;5057119;28;10566;-73
2022/03/17 06:10:27;;;;;;;;;1.00;1.00;;;;;7.92;84.29;102350.28;5055039;28;10661;-73
2022/03/17 06:12:55;;;;;;;;;2.00;2.00;;;;;7.90;84.24;102352.25;5034003;28;10650;-73
2022/03/17 06:15:23;;;;;;;;;2.00;1.00;;;;;7.95;84.41;102358.13;5054516;28;10656;-73
2022/03/17 06:17:57;;;;;;;;;1.50;1.00;;;;;7.90;83.10;102365.75;5054434;28;10533;-73
2022/03/17 06:20:28;;;;;;;;;0.75;0.75;;;;;7.90;82.74;102384.63;5054462;28;10597;-71
2022/03/17 06:22:58;;;;;;;;;0.00;0.00;;;;;7.95;83.47;102386.94;5063374;28;10562;-72
2022/03/17 06:25:28;;;;;;;;;1.25;0.25;;;;;7.94;84.32;102399.56;5033378;28;10591;-72
2022/03/17 06:27:55;;;;;;;;;2.00;1.50;;;;;7.97;85.09;102404.69;5039860;28;10600;-71
2022/03/17 06:30:35;;;;;;;;;0.50;0.50;;;;;8.05;85.53;102408.56;5024917;28;10574;-73
2022/03/17 06:33:04;;;;;;;;;1.00;0.00;;;;;7.98;83.06;102419.03;5036584;28;10566;-72
2022/03/17 06:35:31;;;;;;;;;0.75;0.00;;;;;7.77;80.03;102420.88;5024760;28;10628;-69
2022/03/17 06:38:00;;;;;;;;;1.00;0.00;;;;;7.91;79.67;102428.63;5048612;28;10519;-73
2022/03/17 06:40:28;;;;;;;;;2.75;2.50;;;;;7.93;78.98;102438.31;5022421;28;10504;-72
2022/03/17 06:42:55;;;;;;;;;0.00;0.00;;;;;7.97;78.80;102442.44;5036583;28;10830;-73
2022/03/17 06:45:23;;;;;;;;;1.50;1.50;;;;;8.03;78.11;102447.31;5063237;28;10502;-73
2022/03/17 06:47:50;;;;;;;;;0.00;0.00;;;;;7.98;76.64;102448.69;5043614;28;10662;-73
2022/03/17 06:50:20;;;;;;;;;0.50;0.50;;;;;8.03;76.74;102463.50;5050479;28;10598;-73
2022/03/17 06:52:47;;;;;;;;;0.75;0.75;;;;;7.96;76.23;102478.50;5035754;28;10483;-73
2022/03/17 06:55:13;;;;;;;;;1.00;1.00;;;;;8.03;76.15;102487.75;5033921;28;10487;-71
2022/03/17 06:57:41;;;;;;;;;0.00;0.00;;;;;8.09;76.30;102493.59;5042729;28;10643;-73
2022/03/17 07:00:10;;;;;;;;;0.50;0.50;;;;;8.02;75.93;102483.34;5051912;28;10431;-71
2022/03/17 07:02:36;;;;;;;;;0.00;0.00;;;;;8.02;77.02;102499.53;5034920;28;10576;-72
2022/03/17 07:05:04;;;;;;;;;2.00;0.25;;;;;7.94;76.36;102504.75;5054663;28;10590;-73
2022/03/17 07:07:31;;;;;;;;;1.00;0.00;;;;;8.00;76.43;102503.34;5053109;28;10656;-72
2022/03/17 07:09:58;;;;;;;;;1.75;1.75;;;;;8.10;76.90;102509.66;5035948;28;10596;-71
2022/03/17 07:12:25;;;;;;;;;1.00;1.00;;;;;8.07;75.89;102515.31;5041381;28;10658;-72
2022/03/17 07:14:53;;;;;;;;;2.50;2.50;;;;;7.99;75.77;102526.78;5053557;28;10639;-72
2022/03/17 07:17:22;;;;;;;;;3.00;1.25;;;;;8.01;77.13;102538.28;5033604;28;11379;-72
2022/03/17 07:22:24;;;;;;;;;6.50;0.00;;;;;8.11;76.13;102551.84;5044545;28;10670;-68
2022/03/17 07:24:50;;;;;;;;;1.25;0.25;;;;;8.20;77.11;102542.13;5031192;28;10511;-71
2022/03/17 07:27:17;;;;;;;;;0.75;0.50;;;;;8.28;77.10;102542.31;5029157;28;10798;-70
2022/03/17 07:29:44;;;;;;;;;2.00;0.00;;;;;8.16;76.64;102556.81;5047025;28;10578;-71
2022/03/17 07:32:11;;;;;;;;;0.75;0.75;;;;;8.25;76.56;102564.16;5048787;28;10680;-72
2022/03/17 07:34:38;;;;;;;;;0.00;0.00;;;;;8.29;76.89;102560.19;5031306;28;10684;-72
2022/03/17 07:37:05;;;;;;;;;2.00;1.50;;;;;8.24;76.53;102562.44;5034344;28;10566;-68
2022/03/17 07:39:32;;;;;;;;;0.75;0.75;;;;;8.39;77.25;102568.38;5048319;28;10614;-72
2022/03/17 07:41:58;;;;;;;;;0.00;0.00;;;;;8.45;77.10;102579.53;5050071;28;10586;-72
2022/03/17 07:44:42;;;;;;;;;0.00;0.00;;;;;8.46;77.13;102580.38;5015692;28;10413;-72
2022/03/17 07:47:32;;;;;;;;;1.75;1.75;;;;;8.31;77.20;102588.75;5040925;28;10541;-71
2022/03/17 07:50:00;;;;;;;;;1.50;1.00;;;;;8.26;78.29;102592.84;5046082;28;10465;-72
2022/03/17 07:52:27;;;;;;;;;0.00;0.00;;;;;8.19;77.90;102603.31;5029282;28;10590;-70
2022/03/17 07:54:53;;;;;;;;;0.00;0.00;;;;;8.22;78.98;102607.59;5042367;28;10447;-68
2022/03/17 07:57:20;;;;;;;;;3.50;2.00;;;;;8.18;78.50;102609.69;5010774;28;10765;-68
2022/03/17 07:59:49;;;;;;;;;2.00;2.00;;;;;8.19;79.61;102624.03;5025021;28;10537;-72
2022/03/17 08:02:17;;;;;;;;;0.50;0.25;;;;;8.14;78.31;102621.72;5045124;28;10569;-72
2022/03/17 08:04:47;;;;;;;;;0.25;0.00;;;;;8.03;77.84;102637.94;5042289;28;10807;-70
2022/03/17 08:07:15;;;;;;;;;3.00;2.50;;;;;7.97;77.06;102644.72;5046686;28;10426;-72
2022/03/17 08:09:42;;;;;;;;;3.00;1.00;;;;;7.99;76.14;102647.28;5045962;28;10618;-71
2022/03/17 08:12:09;;;;;;;;;0.00;0.00;;;;;8.03;76.03;102646.91;5029534;28;10798;-72
2022/03/17 08:14:35;;;;;;;;;0.25;0.25;;;;;7.98;76.05;102645.56;5052934;28;10575;-70
2022/03/17 08:17:02;;;;;;;;;0.00;0.00;;;;;8.28;75.97;102645.69;5028754;28;10455;-70
2022/03/17 08:19:28;;;;;;;;;0.50;0.50;;;;;8.28;75.46;102653.78;5032037;28;10686;-69
2022/03/17 08:21:56;;;;;;;;;1.25;1.00;;;;;8.46;75.96;102661.34;5048245;28;10531;-72
2022/03/17 08:24:22;;;;;;;;;1.00;1.00;;;;;8.44;76.07;102664.19;5045679;28;10513;-72
2022/03/17 08:26:49;;;;;;;;;1.00;1.00;;;;;8.44;76.95;102671.44;5043332;28;10423;-72
2022/03/17 08:29:15;;;;;;;;;2.00;1.00;;;;;8.36;75.78;102676.59;5026902;28;10651;-72
2022/03/17 08:31:42;;;;;;;;;4.25;0.00;;;;;8.32;76.96;102686.75;5041603;28;10598;-72
2022/03/17 08:34:08;;;;;;;;;3.50;1.00;;;;;8.54;77.68;102702.03;5029591;28;10444;-72
2022/03/17 08:36:35;;;;;;;;;1.25;0.75;;;;;8.69;77.75;102708.84;5048374;28;10466;-72
2022/03/17 08:39:01;;;;;;;;;1.00;1.00;;;;;8.58;73.94;102709.75;5048816;28;10683;-73
2022/03/17 08:41:28;;;;;;;;;1.75;1.00;;;;;8.53;72.64;102711.13;5030171;28;11334;-71
2022/03/17 08:43:54;;;;;;;;;0.00;0.00;;;;;8.57;72.53;102724.22;5047866;28;10588;-71
2022/03/17 08:49:18;;;;;;;;;0.00;0.00;;;;;8.57;71.62;102734.16;5046147;28;10490;-69
2022/03/17 08:51:53;;;;;;;;;1.00;0.00;;;;;8.52;71.19;102739.97;5024754;28;10733;-74
2022/03/17 08:54:24;;;;;;;;;0.25;0.25;;;;;8.93;69.92;102744.56;5030273;28;10498;-71
2022/03/17 08:57:00;;;;;;;;;3.25;1.00;;;;;8.79;70.37;102735.91;5023187;28;10542;-71
2022/03/17 08:59:36;;;;;;;;;1.00;1.00;;;;;9.14;72.84;102754.47;5024907;28;10536;-66
2022/03/17 09:02:04;;;;;;;;;1.00;1.00;;;;;8.84;70.28;102757.97;5041788;28;10663;-71
2022/03/17 09:04:32;;;;;;;;;1.75;1.00;;;;;9.78;67.98;102756.94;5052470;28;10553;-68
2022/03/17 09:07:00;;;;;;;;;0.00;0.00;;;;;10.28;66.64;102762.38;5042548;28;10480;-72
2022/03/17 09:09:28;;;;;;;;;0.25;0.25;;;;;10.28;65.77;102770.50;5041317;28;10429;-72
2022/03/17 09:11:55;;;;;;;;;0.00;0.00;;;;;10.10;66.35;102776.56;5041362;28;10544;-71
2022/03/17 09:14:22;;;;;;;;;0.00;0.00;;;;;10.79;63.25;102783.81;5041495;28;10364;-71
2022/03/17 09:16:49;;;;;;;;;0.00;0.00;;;;;11.17;61.66;102787.50;5052291;28;10401;-72
2022/03/17 09:19:18;;;;;;;;;1.00;1.00;;;;;11.51;61.08;102779.72;5046771;28;10319;-72
2022/03/17 09:21:46;;;;;;;;;0.75;0.75;;;;;11.16;60.91;102794.78;5027060;28;10074;-71
2022/03/17 09:24:13;;;;;;;;;1.50;0.00;;;;;10.52;61.92;102791.78;5046530;28;9980;-67
2022/03/17 09:26:39;;;;;;;;;2.00;1.00;;;;;10.36;61.38;102795.03;5027360;28;10059;-71
2022/03/17 09:29:06;;;;;;;;;1.00;1.00;;;;;10.85;61.84;102804.06;5046092;28;10134;-70
2022/03/17 09:31:33;;;;;;;;;2.00;0.00;;;;;10.62;63.96;102806.19;5046028;28;10245;-71
2022/03/17 09:33:59;;;;;;;;;2.50;1.25;;;;;11.53;60.28;102811.09;5044624;28;10228;-73
2022/03/17 09:36:26;;;;;;;;;1.00;0.00;;;;;12.27;58.04;102810.25;5045786;28;10233;-70
2022/03/17 09:41:38;;;;;;;;;0.00;0.00;;;;;11.63;59.04;102830.06;5045262;28;9933;-71
2022/03/17 09:44:05;;;;;;;;;1.00;1.00;;;;;11.74;58.29;102831.75;5042407;28;10878;-68
2022/03/17 09:46:33;;;;;;;;;1.00;1.00;;;;;11.91;56.44;102828.31;5010348;28;10736;-71
2022/03/17 09:48:59;;;;;;;;;3.75;3.25;;;;;11.59;57.77;102828.66;5045046;28;9827;-68
2022/03/17 09:51:27;;;;;;;;;1.25;1.25;;;;;11.33;57.32;102826.56;5044831;28;9893;-71
2022/03/17 09:53:56;;;;;;;;;1.00;1.00;;;;;11.33;58.63;102831.13;5028471;28;10027;-71
2022/03/17 09:56:24;;;;;;;;;3.00;0.50;;;;;12.12;57.90;102836.19;5026678;28;9918;-72
2022/03/17 09:58:51;;;;;;;;;2.00;1.75;;;;;11.90;57.90;102851.03;5046238;28;9920;-72
2022/03/17 10:01:19;;;;;;;;;1.00;0.25;;;;;11.84;56.12;102855.16;5027386;28;10033;-71
2022/03/17 10:03:46;;;;;;;;;0.00;0.00;;;;;12.27;55.42;102861.84;5046061;28;9877;-68
2022/03/17 10:06:14;;;;;;;;;1.00;1.00;;;;;13.09;53.94;102856.28;5045765;28;9755;-71
2022/03/17 10:08:42;;;;;;;;;0.50;0.50;;;;;12.61;54.63;102868.38;5045626;28;9779;-71
2022/03/17 10:11:14;;;;;;;;;1.75;1.50;;;;;13.12;53.95;102872.28;5033888;28;9560;-73
2022/03/17 10:13:46;;;;;;;;;0.25;0.25;;;;;13.16;53.14;102872.84;5036776;28;9827;-72
2022/03/17 10:16:18;;;;;;;;;1.50;1.50;;;;;12.51;54.33;102889.31;5049194;28;9436;-72
2022/03/17 10:18:54;;;;;;;;;2.75;1.00;;;;;12.41;54.96;102890.38;5030542;28;9688;-73
2022/03/17 10:21:27;;;;;;;;;1.00;1.00;;;;;12.22;55.41;102896.75;5058484;28;9817;-73
2022/03/17 10:24:00;;;;;;;;;1.00;1.00;;;;;12.71;53.75;102900.94;5026557;28;9743;-73
2022/03/17 10:26:37;;;;;;;;;5.00;2.00;;;;;12.41;53.77;102918.41;5045376;28;9782;-68
2022/03/17 10:29:06;;;;;;;;;1.00;1.00;;;;;12.78;54.33;102915.63;5047458;28;9592;-68
2022/03/17 10:31:51;;;;;;;;;0.00;0.00;;;;;12.70;52.24;102931.00;5051603;28;9509;-69
2022/03/17 10:34:20;;;;;;;;;0.00;0.00;;;;;12.78;54.08;102936.50;5047292;28;9532;-73
2022/03/17 10:36:47;;;;;;;;;3.00;1.00;;;;;12.14;55.14;102942.78;5034153;28;9550;-69
2022/03/17 10:39:15;;;;;;;;;0.50;0.50;;;;;12.19;54.45;102943.22;5028668;28;9752;-70
2022/03/17 10:41:47;;;;;;;;;2.00;2.00;;;;;12.15;54.16;102947.25;5043540;28;9754;-70
2022/03/17 10:44:16;;;;;;;;;2.00;2.00;;;;;12.18;53.02;102944.25;5041118;28;9684;-69
2022/03/17 10:47:01;;;;;;;;;3.50;2.00;;;;;12.17;55.42;102961.53;5047196;28;9656;-70
2022/03/17 10:49:29;;;;;;;;;1.50;1.00;;;;;12.99;54.13;102966.16;5041468;28;9840;-70
2022/03/17 10:51:56;;;;;;;;;1.00;1.00;;;;;13.25;52.55;102972.59;5029089;28;9736;-69
2022/03/17 10:54:24;;;;;;;;;2.50;2.50;;;;;13.61;52.69;102975.28;5049580;28;9607;-70
2022/03/17 10:57:18;;;;;;;;;0.00;0.00;;;;;13.32;51.93;102979.13;5040798;28;9787;-70
2022/03/17 10:59:47;;;;;;;;;2.25;2.00;;;;;13.66;51.76;102986.59;5042312;28;9466;-73
2022/03/17 11:02:21;;;;;;;;;2.00;2.00;;;;;13.63;51.47;102995.03;5043442;28;9700;-70
2022/03/17 11:04:47;;;;;;;;;1.50;1.50;;;;;12.97;49.78;102996.22;5054332;28;9473;-69
2022/03/17 11:07:16;;;;;;;;;1.00;1.00;;;;;12.39;52.00;103007.31;5049181;28;9522;-71
2022/03/17 11:09:44;;;;;;;;;1.25;1.00;;;;;12.14;53.45;103016.09;5049217;28;9496;-71
2022/03/17 11:12:17;;;;;;;;;3.25;2.00;;;;;12.13;53.72;103017.97;5052592;28;9487;-71
2022/03/17 11:14:46;;;;;;;;;1.50;0.50;;;;;12.77;52.83;103021.78;5046143;28;9708;-69
2022/03/17 11:17:16;;;;;;;;;2.00;0.00;;;;;12.44;53.22;103024.06;5046403;28;9502;-70
2022/03/17 11:19:44;;;;;;;;;1.50;1.00;;;;;12.55;53.64;103025.72;5059870;28;9625;-70
2022/03/17 11:22:16;;;;;;;;;0.25;0.25;;;;;12.91;51.32;103038.47;5048482;28;9688;-71
2022/03/17 11:24:42;;;;;;;;;1.00;0.50;;;;;13.00;51.78;103027.69;5057970;28;9734;-69
2022/03/17 11:27:11;;;;;;;;;1.00;1.00;;;;;13.04;51.03;103031.81;5055275;28;9600;-69
2022/03/17 11:29:48;;;;;;;;;0.50;0.00;;;;;12.60;52.42;103027.00;5051369;28;9782;-69
2022/03/17 11:32:29;;;;;;;;;2.50;0.00;;;;;12.36;54.37;103042.94;5045472;28;9593;-69
2022/03/17 11:35:10;;;;;;;;;3.25;2.00;;;;;12.91;52.17;103038.47;5045574;28;9674;-71
2022/03/17 11:37:37;;;;;;;;;5.00;2.00;;;;;13.07;50.29;103035.06;5046100;28;9896;-69
2022/03/17 11:40:11;;;;;;;;;2.00;2.00;;;;;13.25;50.56;103035.16;5047058;28;9892;-70
2022/03/17 11:42:47;;;;;;;;;1.00;1.00;;;;;13.03;51.48;103041.81;5043052;28;9919;-68
2022/03/17 11:45:14;;;;;;;;;1.00;1.00;;;;;13.17;48.68;103038.66;5026182;28;9646;-69